This is the latest recevied weather packets stored in our database for station/object BadBuchau. If no packets are shown the sender has not sent any weather packets the latest 10 day(s).
| Time | Temp. | Humidity | Pressure | Rain* | Wind** | Luminosity | Snow |
|---|---|---|---|---|---|---|---|
| 1777343532 | 7.22° C | 60% | 1015.6 hPa | 0 mm | - | - | - |
| 1777341732 | 7.78° C | 59% | 1015.7 hPa | 0 mm | - | - | - |
| 1777339933 | 7.78° C | 57% | 1016 hPa | 0 mm | - | - | - |
| 1777338131 | 7.78° C | 57% | 1016.1 hPa | 0 mm | - | - | - |
| 1777336329 | 8.33° C | 57% | 1016.2 hPa | 0 mm | - | - | - |
| 1777334529 | 8.33° C | 57% | 1016.3 hPa | 0 mm | - | - | - |
| 1777332730 | 8.89° C | 57% | 1016.3 hPa | 0 mm | - | - | - |
| 1777330929 | 10.56° C | 50% | 1016.3 hPa | 0 mm | - | - | - |
| 1777329129 | 10.56° C | 49% | 1016.4 hPa | 0 mm | - | - | - |
| 1777327329 | 11.11° C | 51% | 1016.9 hPa | 0 mm | - | - | - |
| 1777325530 | 11.11° C | 49% | 1017 hPa | 0 mm | - | - | - |
| 1777323730 | 11.67° C | 50% | 1017 hPa | 0 mm | - | - | - |
| 1777321930 | 12.78° C | 51% | 1017.1 hPa | 0 mm | - | - | - |
| 1777320129 | 13.89° C | 47% | 1017.1 hPa | 0 mm | - | - | - |
| 1777318340 | 14.44° C | 41% | 1017 hPa | 0 mm | - | - | - |
| 1777316531 | 15.56° C | 40% | 1017 hPa | 0 mm | - | - | - |
| 1777314729 | 16.67° C | 37% | 1016.9 hPa | 0 mm | - | - | - |
| 1777312929 | 17.22° C | 35% | 1016.9 hPa | 0 mm | - | - | - |
| 1777311131 | 18.33° C | 33% | 1016.9 hPa | 0 mm | - | - | - |
| 1777309331 | 18.89° C | 32% | 1017 hPa | 0 mm | - | - | - |
| 1777307530 | 18.89° C | 32% | 1017.1 hPa | 0 mm | - | - | - |
| 1777305731 | 19.44° C | 32% | 1017.1 hPa | 0 mm | - | - | - |
| 1777303931 | 19.44° C | 31% | 1017.2 hPa | 0 mm | - | - | - |
| 1777302132 | 20.56° C | 30% | 1017.4 hPa | 0 mm | - | - | - |
| 1777300330 | 20° C | 30% | 1017.7 hPa | 0 mm | - | - | - |
* Rain since midnight (hover to see other rain measurements)
** Current wind speed in m/s (hover to see current wind gust speed)